Time;durP1;ratioP1;P1;durP2;ratioP2;P2;SDS_P1;SDS_P2;PMS_P1;PMS_P2;Temp;Humidity;BMP_temperature;BMP_pressure;BME280_temperature;BME280_humidity;BME280_pressure;Samples;Min_cycle;Max_cycle;Signal;HPM_P1;HPM_P2
2022/10/05 00:00:20;;;;;;;;;;;;;;;10.63;87.34;97428.19;30001;983;1876;-68
2022/10/05 00:00:54;;;;;;;;;;;;;;;10.64;87.16;97418.16;30001;983;1880;-66
2022/10/05 00:01:35;;;;;;;;;;;;;;;10.62;87.16;97421.16;30001;965;1902;-67
2022/10/05 00:02:19;;;;;;;;;;;;;;;10.64;87.15;97418.16;30001;982;1880;-69
2022/10/05 00:02:56;;;;;;;;;;;;;;;10.63;87.73;97422.78;30001;982;1876;-68
2022/10/05 00:03:35;;;;;;;;;;;;;;;10.69;87.43;97418.13;30001;982;1881;-67
2022/10/05 00:04:14;;;;;;;;;;;;;;;10.69;87.15;97421.66;30001;982;1863;-68
2022/10/05 00:04:45;;;;;;;;;;;;;;;10.70;87.01;97422.47;30001;983;1871;-68
2022/10/05 00:05:43;;;;;;;;;;;;;;;10.70;87.28;97423.28;30001;964;1797;-68
2022/10/05 00:06:14;;;;;;;;;;;;;;;10.75;86.60;97425.94;30001;983;1862;-71
2022/10/05 00:06:56;;;;;;;;;;;;;;;10.78;86.39;97421.84;30001;983;1866;-68
2022/10/05 00:07:28;;;;;;;;;;;;;;;10.80;86.32;97421.56;30002;983;1880;-67
2022/10/05 00:08:18;;;;;;;;;;;;;;;10.79;86.34;97425.37;30002;983;1875;-68
2022/10/05 00:08:52;;;;;;;;;;;;;;;10.78;86.48;97427.28;30002;983;1858;-69
2022/10/05 00:09:23;;;;;;;;;;;;;;;10.76;86.65;97421.31;30002;982;1867;-68
2022/10/05 00:09:56;;;;;;;;;;;;;;;10.75;86.69;97423.22;30002;982;1880;-68
2022/10/05 00:10:28;;;;;;;;;;;;;;;10.74;86.57;97421.59;30002;982;1876;-68
2022/10/05 00:10:59;;;;;;;;;;;;;;;10.78;86.17;97423.75;30002;982;1880;-69
2022/10/05 00:11:30;;;;;;;;;;;;;;;10.80;86.12;97425.09;30002;982;1876;-66
2022/10/05 00:12:21;;;;;;;;;;;;;;;10.82;85.93;97420.19;30002;983;1880;-71
2022/10/05 00:12:51;;;;;;;;;;;;;;;10.89;85.81;97425.31;30002;983;1858;-69
2022/10/05 00:13:23;;;;;;;;;;;;;;;10.86;85.63;97420.44;30002;983;1871;-64
2022/10/05 00:13:54;;;;;;;;;;;;;;;10.91;85.12;97428.56;30002;983;1875;-68
2022/10/05 00:14:30;;;;;;;;;;;;;;;10.91;85.28;97423.13;30002;983;1880;-65
2022/10/05 00:15:01;;;;;;;;;;;;;;;10.90;85.16;97433.19;30002;983;1876;-68
2022/10/05 00:15:34;;;;;;;;;;;;;;;10.94;84.88;97430.72;30002;983;1867;-69
2022/10/05 00:16:19;;;;;;;;;;;;;;;10.96;85.18;97423.09;30002;983;1867;-67
2022/10/05 00:16:50;;;;;;;;;;;;;;;10.97;84.62;97427.44;30003;819;1014;-69
2022/10/05 00:17:24;;;;;;;;;;;;;;;10.94;85.09;97425.28;30002;972;1896;-70
2022/10/05 00:17:55;;;;;;;;;;;;;;;10.94;85.15;97428.00;30002;982;1880;-70
2022/10/05 00:18:28;;;;;;;;;;;;;;;10.92;84.93;97424.75;30002;982;1876;-69
2022/10/05 00:18:59;;;;;;;;;;;;;;;10.89;85.02;97419.88;30002;982;1867;-68
2022/10/05 00:19:37;;;;;;;;;;;;;;;10.86;84.98;97423.16;30002;983;1866;-70
2022/10/05 00:20:19;;;;;;;;;;;;;;;10.83;85.40;97426.44;30002;983;1879;-69
2022/10/05 00:20:50;;;;;;;;;;;;;;;10.79;85.72;97420.75;30002;983;1875;-69
2022/10/05 00:21:22;;;;;;;;;;;;;;;10.77;85.99;97422.94;30002;968;1902;-70
2022/10/05 00:22:28;;;;;;;;;;;;;;;10.78;85.92;97423.75;30002;983;1875;-70
2022/10/05 00:23:00;;;;;;;;;;;;;;;10.72;85.90;97421.09;30002;983;1876;-71
2022/10/05 00:23:31;;;;;;;;;;;;;;;10.71;86.32;97419.47;30002;983;1826;-68
2022/10/05 00:24:09;;;;;;;;;;;;;;;10.71;86.12;97424.09;30002;982;1858;-69
2022/10/05 00:24:40;;;;;;;;;;;;;;;10.67;86.64;97418.41;30002;982;1876;-68
2022/10/05 00:25:16;;;;;;;;;;;;;;;10.68;86.63;97414.59;30002;982;1867;-70
2022/10/05 00:25:47;;;;;;;;;;;;;;;10.71;86.61;97415.94;30002;982;1867;-70
2022/10/05 00:26:22;;;;;;;;;;;;;;;10.74;86.23;97418.09;30002;982;1880;-68
2022/10/05 00:26:54;;;;;;;;;;;;;;;10.73;86.21;97420.00;30002;982;1876;-70
2022/10/05 00:27:26;;;;;;;;;;;;;;;10.72;86.17;97421.09;30002;983;1867;-68
2022/10/05 00:27:59;;;;;;;;;;;;;;;10.72;86.63;97414.84;30002;983;1867;-71
2022/10/05 00:28:30;;;;;;;;;;;;;;;10.74;86.28;97413.47;30002;983;1880;-69
2022/10/05 00:29:05;;;;;;;;;;;;;;;10.73;86.47;97416.47;30002;970;1895;-69
2022/10/05 00:29:37;;;;;;;;;;;;;;;10.70;86.33;97408.91;30002;983;1793;-69
2022/10/05 00:30:28;;;;;;;;;;;;;;;10.73;85.93;97413.78;30002;983;1875;-70
2022/10/05 00:31:09;;;;;;;;;;;;;;;10.69;86.21;97416.22;30002;983;1858;-69
2022/10/05 00:31:41;;;;;;;;;;;;;;;10.70;86.37;97412.41;30002;982;1871;-69
2022/10/05 00:32:12;;;;;;;;;;;;;;;10.73;86.12;97411.88;30002;982;1876;-70
2022/10/05 00:32:44;;;;;;;;;;;;;;;10.74;86.10;97408.03;30002;986;1871;-68
2022/10/05 00:33:14;;;;;;;;;;;;;;;10.70;86.12;97407.00;30002;982;1783;-70
2022/10/05 00:33:46;;;;;;;;;;;;;;;10.66;86.20;97411.34;30002;982;1876;-70
2022/10/05 00:34:17;;;;;;;;;;;;;;;10.64;86.13;97410.00;30002;982;1881;-68
2022/10/05 00:34:48;;;;;;;;;;;;;;;10.62;86.44;97410.28;30002;983;1792;-69
2022/10/05 00:35:19;;;;;;;;;;;;;;;10.63;86.11;97401.06;30002;986;1863;-70
2022/10/05 00:35:52;;;;;;;;;;;;;;;10.62;86.47;97402.16;30002;983;1862;-69
2022/10/05 00:36:25;;;;;;;;;;;;;;;10.61;86.35;97403.25;30002;983;1879;-69
2022/10/05 00:36:57;;;;;;;;;;;;;;;10.57;86.60;97407.59;30002;983;1884;-70
2022/10/05 00:37:28;;;;;;;;;;;;;;;10.59;86.51;97400.00;30002;986;1871;-70
2022/10/05 00:38:00;;;;;;;;;;;;;;;10.59;86.72;97404.63;30002;974;1904;-68
2022/10/05 00:38:30;;;;;;;;;;;;;;;10.56;86.37;97405.97;30002;983;1880;-71
2022/10/05 00:39:02;;;;;;;;;;;;;;;10.54;86.39;97408.16;30002;986;1876;-68
2022/10/05 00:39:34;;;;;;;;;;;;;;;10.52;86.47;97413.06;30002;982;1885;-67
2022/10/05 00:40:23;;;;;;;;;;;;;;;10.51;86.88;97407.91;30002;982;1867;-69
2022/10/05 00:41:04;;;;;;;;;;;;;;;10.45;87.14;97404.41;30002;982;1876;-70
2022/10/05 00:41:53;;;;;;;;;;;;;;;10.46;87.06;97406.03;30002;982;1880;-70
2022/10/05 00:42:35;;;;;;;;;;;;;;;10.42;86.83;97404.97;30002;983;1875;-69
2022/10/05 00:43:28;;;;;;;;;;;;;;;10.46;87.24;97406.03;30002;983;1879;-68
2022/10/05 00:44:17;;;;;;;;;;;;;;;10.52;86.96;97402.19;30002;983;1884;-71
2022/10/05 00:45:00;;;;;;;;;;;;;;;10.53;86.69;97406.53;30002;983;1871;-69
2022/10/05 00:45:34;;;;;;;;;;;;;;;10.57;86.34;97412.22;30002;983;1871;-69
2022/10/05 00:46:11;;;;;;;;;;;;;;;10.52;86.32;97402.19;30002;983;1858;-70
2022/10/05 00:46:56;;;;;;;;;;;;;;;10.53;86.41;97403.81;30002;982;1884;-68
2022/10/05 00:47:47;;;;;;;;;;;;;;;10.54;86.28;97402.72;30002;982;1880;-69
2022/10/05 00:48:37;;;;;;;;;;;;;;;10.52;86.64;97404.09;30002;982;1880;-70
2022/10/05 00:49:27;;;;;;;;;;;;;;;10.48;86.71;97409.28;30003;770;1014;-69
2022/10/05 00:50:17;;;;;;;;;;;;;;;10.45;86.74;97404.41;30002;983;1884;-69
2022/10/05 00:51:10;;;;;;;;;;;;;;;10.39;86.68;97406.34;30002;983;1746;-70
2022/10/05 00:51:45;;;;;;;;;;;;;;;10.38;87.11;97406.62;30002;983;1875;-69
2022/10/05 00:52:41;;;;;;;;;;;;;;;10.38;87.01;97409.34;30002;983;1880;-68
2022/10/05 00:53:30;;;;;;;;;;;;;;;10.42;86.60;97404.97;30002;983;1880;-70
2022/10/05 00:54:24;;;;;;;;;;;;;;;10.46;86.51;97403.31;30002;982;1880;-71
2022/10/05 00:55:17;;;;;;;;;;;;;;;10.47;86.42;97394.09;30002;982;1867;-70
2022/10/05 00:56:14;;;;;;;;;;;;;;;10.52;86.15;97399.50;30002;982;1867;-71
2022/10/05 00:57:18;;;;;;;;;;;;;;;10.48;86.23;97398.41;30002;983;1879;-67
2022/10/05 00:58:17;;;;;;;;;;;;;;;10.42;86.49;97399.53;30002;983;1862;-70
2022/10/05 00:59:27;;;;;;;;;;;;;;;10.37;86.48;97394.16;30002;983;1858;-69
2022/10/05 01:00:18;;;;;;;;;;;;;;;10.30;87.31;97402.59;30002;983;1862;-69
2022/10/05 01:01:10;;;;;;;;;;;;;;;10.34;87.10;97402.84;30002;983;1871;-69
2022/10/05 01:02:06;;;;;;;;;;;;;;;10.39;87.36;97394.69;30001;982;1880;-68
2022/10/05 01:02:56;;;;;;;;;;;;;;;10.35;86.96;97404.47;30001;982;1867;-69
2022/10/05 01:03:49;;;;;;;;;;;;;;;10.27;87.10;97402.34;30002;965;1871;-69
2022/10/05 01:04:36;;;;;;;;;;;;;;;10.23;87.61;97402.06;30001;983;1879;-68
2022/10/05 01:05:25;;;;;;;;;;;;;;;10.21;88.00;97404.25;30001;983;1879;-68
2022/10/05 01:06:21;;;;;;;;;;;;;;;10.20;87.92;97407.25;30001;983;1875;-71
2022/10/05 01:07:21;;;;;;;;;;;;;;;10.18;88.24;97398.53;30001;983;1862;-69
2022/10/05 01:07:58;;;;;;;;;;;;;;;10.16;87.99;97406.12;30001;961;1880;-68
2022/10/05 01:08:36;;;;;;;;;;;;;;;10.22;88.18;97405.06;30001;983;1880;-70
2022/10/05 01:09:25;;;;;;;;;;;;;;;10.22;88.01;97399.63;30001;982;1884;-69
2022/10/05 01:10:05;;;;;;;;;;;;;;;10.18;88.31;97403.97;30001;982;1871;-69
2022/10/05 01:10:45;;;;;;;;;;;;;;;10.15;88.30;97404.50;30001;982;1884;-69
2022/10/05 01:11:23;;;;;;;;;;;;;;;10.13;88.57;97407.50;30001;982;1880;-69
2022/10/05 01:12:02;;;;;;;;;;;;;;;10.22;88.38;97396.94;30001;983;1871;-72
2022/10/05 01:12:58;;;;;;;;;;;;;;;10.21;88.19;97406.16;30001;983;1871;-68
2022/10/05 01:14:07;;;;;;;;;;;;;;;10.18;88.74;97403.97;30001;983;1884;-69
2022/10/05 01:14:56;;;;;;;;;;;;;;;10.20;88.26;97407.25;30001;983;1862;-70
2022/10/05 01:15:56;;;;;;;;;;;;;;;10.17;88.52;97400.44;30001;983;1854;-68
2022/10/05 01:16:35;;;;;;;;;;;;;;;10.19;88.25;97402.87;30001;982;1876;-68
2022/10/05 01:17:28;;;;;;;;;;;;;;;10.16;88.48;97408.84;30001;982;1884;-71
2022/10/05 01:18:05;;;;;;;;;;;;;;;10.12;88.71;97405.06;30001;982;1876;-69
2022/10/05 01:19:02;;;;;;;;;;;;;;;10.08;88.86;97405.62;30001;982;1885;-70
2022/10/05 01:19:47;;;;;;;;;;;;;;;10.08;88.92;97411.03;30001;983;1875;-69
2022/10/05 01:20:43;;;;;;;;;;;;;;;10.04;89.35;97411.91;30001;983;1871;-69
2022/10/05 01:21:19;;;;;;;;;;;;;;;10.02;89.39;97412.19;30001;983;1866;-71
2022/10/05 01:22:00;;;;;;;;;;;;;;;10.02;89.36;97414.88;30001;983;1884;-66
2022/10/05 01:23:05;;;;;;;;;;;;;;;10.01;89.70;97410.56;30001;985;1880;-68
2022/10/05 01:23:54;;;;;;;;;;;;;;;10.01;89.99;97415.16;30001;983;1867;-69
2022/10/05 01:24:45;;;;;;;;;;;;;;;9.99;90.17;97412.72;30002;982;1757;-71
2022/10/05 01:25:22;;;;;;;;;;;;;;;9.97;90.11;97406.75;30001;982;1880;-66
2022/10/05 01:26:13;;;;;;;;;;;;;;;9.96;90.32;97407.84;30001;982;1867;-67
2022/10/05 01:26:58;;;;;;;;;;;;;;;9.95;90.34;97411.66;30001;983;1871;-69
2022/10/05 01:27:37;;;;;;;;;;;;;;;9.99;90.50;97401.06;30001;983;1866;-71
2022/10/05 01:28:11;;;;;;;;;;;;;;;9.98;90.39;97411.09;30001;983;1862;-67
2022/10/05 01:28:55;;;;;;;;;;;;;;;9.99;90.81;97401.87;30001;983;1880;-69
2022/10/05 01:29:39;;;;;;;;;;;;;;;10.01;90.60;97405.12;30001;983;1885;-67
2022/10/05 01:30:15;;;;;;;;;;;;;;;10.00;90.69;97402.69;30001;983;1880;-69
2022/10/05 01:31:05;;;;;;;;;;;;;;;10.00;90.61;97392.66;30001;982;1884;-68
2022/10/05 01:31:54;;;;;;;;;;;;;;;9.99;90.69;97396.47;30001;982;1876;-69
2022/10/05 01:33:03;;;;;;;;;;;;;;;9.97;91.60;97397.81;30002;982;1808;-68
2022/10/05 01:33:45;;;;;;;;;;;;;;;9.96;91.16;97402.44;30001;982;1863;-70
2022/10/05 01:34:24;;;;;;;;;;;;;;;9.98;91.08;97399.44;30001;983;1875;-68
2022/10/05 01:35:20;;;;;;;;;;;;;;;9.98;91.32;97394.84;30001;983;1880;-70
2022/10/05 01:36:26;;;;;;;;;;;;;;;10.01;91.51;97393.47;30001;983;1879;-72
2022/10/05 01:37:15;;;;;;;;;;;;;;;10.03;90.96;97392.09;30001;983;1875;-67
2022/10/05 01:38:06;;;;;;;;;;;;;;;10.02;91.38;97401.34;30001;983;1862;-68
2022/10/05 01:39:09;;;;;;;;;;;;;;;10.05;91.20;97389.09;30001;982;1867;-68
2022/10/05 01:40:03;;;;;;;;;;;;;;;10.04;90.72;97393.72;30001;982;1867;-68
2022/10/05 01:40:43;;;;;;;;;;;;;;;10.03;91.10;97397.53;30001;982;1867;-67
2022/10/05 01:41:19;;;;;;;;;;;;;;;10.04;91.04;97399.16;30001;982;1885;-69
2022/10/05 01:41:57;;;;;;;;;;;;;;;10.05;91.15;97394.50;30001;983;1765;-66
2022/10/05 01:42:46;;;;;;;;;;;;;;;10.05;91.00;97395.31;30001;983;1786;-68
2022/10/05 01:43:44;;;;;;;;;;;;;;;10.03;91.51;97392.09;30001;983;1871;-68
2022/10/05 01:44:17;;;;;;;;;;;;;;;10.01;91.70;97394.28;30001;983;1880;-69
2022/10/05 01:45:05;;;;;;;;;;;;;;;10.01;91.90;97393.47;30001;983;1880;-69
2022/10/05 01:45:46;;;;;;;;;;;;;;;10.03;91.77;97392.09;30002;960;1774;-69
2022/10/05 01:46:31;;;;;;;;;;;;;;;10.04;91.88;97393.72;30001;982;1871;-68
2022/10/05 01:47:16;;;;;;;;;;;;;;;10.02;91.70;97393.19;30001;982;1885;-68
2022/10/05 01:47:54;;;;;;;;;;;;;;;10.02;91.82;97395.91;30001;982;1880;-68
2022/10/05 01:48:56;;;;;;;;;;;;;;;10.02;92.04;97395.09;30001;982;1798;-68
2022/10/05 01:49:33;;;;;;;;;;;;;;;10.03;91.58;97389.41;30001;983;1875;-68
2022/10/05 01:50:15;;;;;;;;;;;;;;;10.03;92.05;97394.81;30001;983;1884;-69
2022/10/05 01:50:59;;;;;;;;;;;;;;;10.02;92.26;97395.91;30001;962;1887;-73
2022/10/05 01:52:53;;;;;;;;;;;;;;;10.03;92.14;97392.09;89986;930;17991;-67
2022/10/05 01:53:38;;;;;;;;;;;;;;;10.03;92.44;97386.69;30001;983;1867;-67
2022/10/05 01:54:28;;;;;;;;;;;;;;;10.03;92.23;97397.53;30001;983;1866;-70
2022/10/05 01:55:10;;;;;;;;;;;;;;;10.04;92.17;97388.31;30001;983;1879;-69
2022/10/05 01:55:48;;;;;;;;;;;;;;;10.06;91.94;97391.53;30001;983;1862;-68
2022/10/05 01:56:29;;;;;;;;;;;;;;;10.07;91.70;97398.56;30001;983;1870;-69
2022/10/05 01:57:09;;;;;;;;;;;;;;;10.09;91.86;97393.69;30001;983;1875;-68
2022/10/05 01:58:03;;;;;;;;;;;;;;;10.09;91.51;97390.97;30001;982;1879;-68
2022/10/05 01:58:48;;;;;;;;;;;;;;;10.15;91.24;97393.66;30001;982;1870;-68
2022/10/05 01:59:48;;;;;;;;;;;;;;;10.17;90.94;97394.22;30001;982;1879;-68
2022/10/05 02:00:19;;;;;;;;;;;;;;;10.18;90.99;97385.78;30001;982;1871;-68
2022/10/05 02:00:58;;;;;;;;;;;;;;;10.19;91.02;97389.31;30001;983;1866;-69
2022/10/05 02:01:39;;;;;;;;;;;;;;;10.19;91.13;97379.31;30001;956;1858;-70
2022/10/05 02:02:13;;;;;;;;;;;;;;;10.20;91.06;97382.84;30001;983;1879;-65
2022/10/05 02:03:05;;;;;;;;;;;;;;;10.21;90.75;97385.28;30001;983;1874;-66
2022/10/05 02:03:43;;;;;;;;;;;;;;;10.21;90.64;97379.03;30001;983;1861;-66
2022/10/05 02:04:18;;;;;;;;;;;;;;;10.23;90.82;97379.56;30001;983;1853;-67
2022/10/05 02:04:55;;;;;;;;;;;;;;;10.23;90.77;97383.09;30001;983;1879;-70
2022/10/05 02:05:51;;;;;;;;;;;;;;;10.25;90.51;97378.19;30001;985;1866;-68
2022/10/05 02:06:25;;;;;;;;;;;;;;;10.28;90.40;97383.06;30001;982;1862;-67
2022/10/05 02:06:57;;;;;;;;;;;;;;;10.28;90.39;97377.66;30001;982;1866;-69
2022/10/05 02:07:48;;;;;;;;;;;;;;;10.28;90.34;97380.38;30001;982;1879;-68
2022/10/05 02:08:30;;;;;;;;;;;;;;;10.29;90.69;97379.28;30001;962;1891;-67
2022/10/05 02:09:21;;;;;;;;;;;;;;;10.28;90.39;97382.25;30001;983;1865;-68
2022/10/05 02:09:55;;;;;;;;;;;;;;;10.31;90.42;97387.13;30001;983;1866;-69
2022/10/05 02:10:41;;;;;;;;;;;;;;;10.30;90.56;97380.91;30001;983;1879;-70
2022/10/05 02:11:13;;;;;;;;;;;;;;;10.31;90.49;97381.72;30001;983;1875;-68
2022/10/05 02:11:47;;;;;;;;;;;;;;;10.30;90.36;97375.47;30001;983;1880;-67
2022/10/05 02:12:23;;;;;;;;;;;;;;;10.32;90.43;97384.16;30001;983;1875;-69
2022/10/05 02:13:00;;;;;;;;;;;;;;;10.33;90.28;97380.34;30001;982;1879;-69
2022/10/05 02:13:35;;;;;;;;;;;;;;;10.33;90.25;97379.53;30001;982;1875;-70
2022/10/05 02:14:10;;;;;;;;;;;;;;;10.35;90.13;97377.34;30001;982;1867;-68
2022/10/05 02:14:51;;;;;;;;;;;;;;;10.35;89.76;97380.88;30001;968;1887;-69
2022/10/05 02:15:24;;;;;;;;;;;;;;;10.36;89.82;97384.41;30001;982;1880;-69
2022/10/05 02:16:21;;;;;;;;;;;;;;;10.37;89.83;97380.59;30001;983;1874;-70
2022/10/05 02:16:54;;;;;;;;;;;;;;;10.37;89.72;97386.03;30001;983;1874;-70
2022/10/05 02:17:29;;;;;;;;;;;;;;;10.36;89.82;97384.41;30001;983;1875;-69
2022/10/05 02:18:09;;;;;;;;;;;;;;;10.36;89.87;97381.69;30001;983;1879;-68
2022/10/05 02:18:46;;;;;;;;;;;;;;;10.36;89.76;97378.97;30001;983;1875;-69
2022/10/05 02:19:20;;;;;;;;;;;;;;;10.36;89.91;97381.69;30001;983;1866;-68
2022/10/05 02:19:55;;;;;;;;;;;;;;;10.35;90.02;97377.34;30001;983;1762;-69
2022/10/05 02:20:30;;;;;;;;;;;;;;;10.35;89.71;97383.59;30001;982;1866;-68
2022/10/05 02:21:02;;;;;;;;;;;;;;;10.35;89.85;97375.44;30001;982;1866;-67
2022/10/05 02:21:33;;;;;;;;;;;;;;;10.35;89.54;97380.06;30001;982;1879;-68
2022/10/05 02:22:06;;;;;;;;;;;;;;;10.36;89.74;97381.69;30001;967;1890;-69
2022/10/05 02:22:42;;;;;;;;;;;;;;;10.36;89.73;97379.78;30001;982;1880;-68
2022/10/05 02:23:17;;;;;;;;;;;;;;;10.35;89.64;97386.31;30001;982;1862;-69
2022/10/05 02:23:51;;;;;;;;;;;;;;;10.36;89.67;97379.78;30001;983;1783;-70
2022/10/05 02:24:28;;;;;;;;;;;;;;;10.37;89.57;97375.97;30001;983;1875;-71
2022/10/05 02:25:02;;;;;;;;;;;;;;;10.38;89.42;97376.78;30001;983;1879;-68
2022/10/05 02:25:38;;;;;;;;;;;;;;;10.39;89.49;97373.81;30001;983;1874;-68
2022/10/05 02:26:10;;;;;;;;;;;;;;;10.39;89.30;97378.41;30001;983;1879;-70
2022/10/05 02:26:41;;;;;;;;;;;;;;;10.38;89.55;97365.94;30001;983;1875;-68
2022/10/05 02:27:16;;;;;;;;;;;;;;;10.37;89.48;97375.16;30001;983;1879;-69
2022/10/05 02:27:51;;;;;;;;;;;;;;;10.37;89.45;97375.16;30001;982;1875;-68
2022/10/05 02:28:33;;;;;;;;;;;;;;;10.39;89.39;97376.50;30001;982;1866;-69
2022/10/05 02:29:07;;;;;;;;;;;;;;;10.39;89.05;97375.72;30001;982;1867;-70
2022/10/05 02:29:41;;;;;;;;;;;;;;;10.40;89.33;97378.09;30001;986;1862;-67
2022/10/05 02:30:13;;;;;;;;;;;;;;;10.39;89.46;97367.56;30001;983;1874;-69
2022/10/05 02:30:47;;;;;;;;;;;;;;;10.41;89.02;97370.78;30001;983;1879;-70
2022/10/05 02:31:21;;;;;;;;;;;;;;;10.44;89.23;97380.25;30001;983;1883;-70
2022/10/05 02:32:13;;;;;;;;;;;;;;;10.43;88.99;97376.75;30001;983;1879;-72
2022/10/05 02:32:48;;;;;;;;;;;;;;;10.42;89.08;97366.97;30001;983;1879;-68
2022/10/05 02:33:27;;;;;;;;;;;;;;;10.43;89.21;97373.22;30001;983;1837;-70
2022/10/05 02:34:17;;;;;;;;;;;;;;;10.42;88.94;97372.41;30001;986;1858;-71
2022/10/05 02:34:47;;;;;;;;;;;;;;;10.40;89.21;97371.87;30001;983;1862;-70
2022/10/05 02:35:19;;;;;;;;;;;;;;;10.40;89.31;97372.69;30001;982;1876;-71
2022/10/05 02:35:54;;;;;;;;;;;;;;;10.40;89.24;97369.97;30001;982;1880;-69
2022/10/05 02:36:34;;;;;;;;;;;;;;;10.38;89.23;97366.75;30001;982;1876;-69
2022/10/05 02:37:31;;;;;;;;;;;;;;;10.39;89.49;97362.16;30001;971;1902;-69
2022/10/05 02:38:27;;;;;;;;;;;;;;;10.39;89.26;97365.66;30001;965;1888;-70
2022/10/05 02:39:10;;;;;;;;;;;;;;;10.39;89.12;97370.28;30001;983;1861;-69
2022/10/05 02:39:58;;;;;;;;;;;;;;;10.37;89.28;97367.84;30001;983;1866;-70
2022/10/05 02:40:55;;;;;;;;;;;;;;;10.36;89.35;97366.22;30001;983;1866;-70
2022/10/05 02:41:42;;;;;;;;;;;;;;;10.34;89.40;97359.44;30001;983;1849;-68
2022/10/05 02:42:48;;;;;;;;;;;;;;;10.33;89.69;97365.97;30001;983;1879;-70
2022/10/05 02:43:37;;;;;;;;;;;;;;;10.32;89.73;97358.91;30001;982;1787;-69
2022/10/05 02:44:31;;;;;;;;;;;;;;;10.31;89.47;97366.25;30001;982;1879;-68
2022/10/05 02:45:30;;;;;;;;;;;;;;;10.34;89.76;97359.44;30001;982;1872;-69
2022/10/05 02:46:24;;;;;;;;;;;;;;;10.36;89.67;97354.56;30001;983;1874;-69
2022/10/05 02:47:18;;;;;;;;;;;;;;;10.37;89.51;97358.91;30001;983;1857;-69
2022/10/05 02:48:17;;;;;;;;;;;;;;;10.36;89.69;97357.28;30001;983;1866;-70
2022/10/05 02:49:07;;;;;;;;;;;;;;;10.38;89.61;97355.09;30001;983;1870;-69
2022/10/05 02:49:47;;;;;;;;;;;;;;;10.39;89.62;97357.53;30001;983;1879;-68
2022/10/05 02:50:43;;;;;;;;;;;;;;;10.38;89.39;97355.91;30001;982;1876;-69
2022/10/05 02:51:27;;;;;;;;;;;;;;;10.38;89.47;97361.31;30001;982;1880;-68
2022/10/05 02:52:12;;;;;;;;;;;;;;;10.37;89.37;97361.59;30001;982;1863;-68
2022/10/05 02:53:08;;;;;;;;;;;;;;;10.37;89.68;97364.31;30001;982;1871;-69
2022/10/05 02:53:57;;;;;;;;;;;;;;;10.36;89.79;97362.69;30001;983;1870;-68
2022/10/05 02:54:41;;;;;;;;;;;;;;;10.34;89.68;97365.69;30001;983;1870;-68
2022/10/05 02:55:22;;;;;;;;;;;;;;;10.36;89.73;97365.41;30001;983;1861;-69
2022/10/05 02:55:59;;;;;;;;;;;;;;;10.35;89.77;97366.50;30001;983;1857;-69
2022/10/05 02:56:57;;;;;;;;;;;;;;;10.35;89.77;97371.94;30001;983;1875;-70
2022/10/05 02:57:45;;;;;;;;;;;;;;;10.35;89.72;97371.94;30001;983;1875;-68
2022/10/05 02:58:21;;;;;;;;;;;;;;;10.33;89.86;97369.50;30001;982;1875;-69
2022/10/05 02:59:13;;;;;;;;;;;;;;;10.35;89.96;97371.94;30001;986;1870;-70
2022/10/05 02:59:53;;;;;;;;;;;;;;;10.32;89.60;97365.16;30001;982;1867;-68
2022/10/05 03:00:28;;;;;;;;;;;;;;;10.33;89.70;97371.37;30001;983;1866;-70
2022/10/05 03:01:08;;;;;;;;;;;;;;;10.33;90.04;97371.37;30001;983;1879;-68
2022/10/05 03:01:54;;;;;;;;;;;;;;;10.32;89.93;97372.47;30001;983;1875;-69
2022/10/05 03:02:28;;;;;;;;;;;;;;;10.32;90.12;97372.47;30001;983;1879;-69
2022/10/05 03:04:13;;;;;;;;;;;;;;;10.30;89.98;97377.38;30001;983;1870;-69
2022/10/05 03:05:02;;;;;;;;;;;;;;;10.29;90.41;97370.31;30001;982;1862;-69
2022/10/05 03:05:37;;;;;;;;;;;;;;;10.28;90.23;97372.22;30001;982;1849;-69
2022/10/05 03:06:13;;;;;;;;;;;;;;;10.27;90.35;97380.63;30001;982;1875;-69
2022/10/05 03:06:52;;;;;;;;;;;;;;;10.28;90.50;97376.84;30001;982;1880;-68
2022/10/05 03:07:26;;;;;;;;;;;;;;;10.29;90.51;97383.88;30001;982;1875;-69
2022/10/05 03:08:01;;;;;;;;;;;;;;;10.30;90.53;97374.66;30001;985;1879;-68
2022/10/05 03:08:36;;;;;;;;;;;;;;;10.29;90.58;97368.44;30001;983;1874;-68
2022/10/05 03:09:08;;;;;;;;;;;;;;;10.30;90.66;97374.66;30001;983;1879;-67
2022/10/05 03:10:02;;;;;;;;;;;;;;;10.29;90.30;97378.47;30001;983;1861;-67
2022/10/05 03:10:38;;;;;;;;;;;;;;;10.29;90.41;97378.47;30001;983;1866;-69
2022/10/05 03:11:29;;;;;;;;;;;;;;;10.30;90.78;97374.66;30001;983;1862;-68
2022/10/05 03:12:11;;;;;;;;;;;;;;;10.31;90.76;97387.13;30001;983;1852;-68
2022/10/05 03:13:01;;;;;;;;;;;;;;;10.29;90.95;97383.88;30001;982;1784;-69
2022/10/05 03:13:54;;;;;;;;;;;;;;;10.28;90.87;97377.66;30001;982;1789;-67
2022/10/05 03:14:30;;;;;;;;;;;;;;;10.28;90.61;97383.06;30001;982;1871;-69
2022/10/05 03:15:20;;;;;;;;;;;;;;;10.27;90.85;97384.16;30001;986;1880;-68
2022/10/05 03:16:17;;;;;;;;;;;;;;;10.29;90.75;97378.47;30001;983;1870;-69
2022/10/05 03:17:03;;;;;;;;;;;;;;;10.29;90.76;97373.84;30001;983;1874;-68
2022/10/05 03:17:40;;;;;;;;;;;;;;;10.30;90.84;97374.66;30001;983;1861;-68
2022/10/05 03:18:19;;;;;;;;;;;;;;;10.31;90.53;97370.84;30001;983;1871;-68
2022/10/05 03:19:16;;;;;;;;;;;;;;;10.30;90.74;97374.66;30001;986;1866;-68
2022/10/05 03:19:56;;;;;;;;;;;;;;;10.30;90.41;97369.22;30001;982;1862;-68
2022/10/05 03:20:49;;;;;;;;;;;;;;;10.30;90.63;97366.53;30001;982;1866;-68
2022/10/05 03:21:38;;;;;;;;;;;;;;;10.30;90.81;97366.53;30001;982;1875;-69
2022/10/05 03:22:28;;;;;;;;;;;;;;;10.29;90.92;97362.19;30001;982;1867;-69
2022/10/05 03:23:00;;;;;;;;;;;;;;;10.29;90.98;97362.19;30001;983;1875;-68
2022/10/05 03:23:49;;;;;;;;;;;;;;;10.29;90.90;97362.19;30001;983;1875;-69
2022/10/05 03:24:48;;;;;;;;;;;;;;;10.29;91.30;97367.62;30001;985;1858;-68
2022/10/05 03:25:41;;;;;;;;;;;;;;;10.32;90.95;97367.88;30001;987;1866;-68
2022/10/05 03:26:38;;;;;;;;;;;;;;;10.32;90.76;97367.88;30001;983;1879;-70
2022/10/05 03:27:27;;;;;;;;;;;;;;;10.34;90.89;97356.75;30002;777;1014;-68
2022/10/05 03:28:23;;;;;;;;;;;;;;;10.33;90.45;97361.34;30001;982;1871;-69
2022/10/05 03:29:00;;;;;;;;;;;;;;;10.35;90.73;97361.88;30001;982;1866;-68
2022/10/05 03:29:39;;;;;;;;;;;;;;;10.37;90.67;97362.41;30001;982;1884;-69
2022/10/05 03:30:24;;;;;;;;;;;;;;;10.36;90.64;97365.41;30001;982;1879;-69
2022/10/05 03:31:09;;;;;;;;;;;;;;;10.36;90.58;97368.12;30001;983;1883;-67
2022/10/05 03:31:50;;;;;;;;;;;;;;;10.36;90.80;97362.69;30001;983;1786;-68
2022/10/05 03:32:42;;;;;;;;;;;;;;;10.36;90.55;97357.28;30001;983;1871;-69
2022/10/05 03:33:35;;;;;;;;;;;;;;;10.35;91.08;97361.88;30001;983;1857;-68
2022/10/05 03:34:29;;;;;;;;;;;;;;;10.36;90.77;97352.66;30001;987;1879;-66
2022/10/05 03:35:10;;;;;;;;;;;;;;;10.38;90.71;97357.81;30001;982;1793;-69
2022/10/05 03:35:50;;;;;;;;;;;;;;;10.38;90.96;97355.91;30001;984;1884;-67
2022/10/05 03:36:58;;;;;;;;;;;;;;;10.38;90.71;97350.47;30001;982;1879;-68
2022/10/05 03:37:55;;;;;;;;;;;;;;;10.39;90.65;97346.69;30001;983;1865;-71
2022/10/05 03:38:41;;;;;;;;;;;;;;;10.41;90.60;97349.09;30001;966;1809;-69
2022/10/05 03:39:35;;;;;;;;;;;;;;;10.42;90.50;97345.28;30001;986;1883;-66
2022/10/05 03:40:19;;;;;;;;;;;;;;;10.43;90.77;97343.38;30001;983;1861;-70
2022/10/05 03:40:58;;;;;;;;;;;;;;;10.42;90.73;97339.84;30001;983;1875;-69
2022/10/05 03:41:35;;;;;;;;;;;;;;;10.43;90.56;97336.03;30001;983;1879;-69
2022/10/05 03:42:29;;;;;;;;;;;;;;;10.44;90.68;97337.66;30001;983;1870;-69
2022/10/05 03:43:22;;;;;;;;;;;;;;;10.44;90.62;97332.25;30001;982;1867;-67
2022/10/05 03:44:04;;;;;;;;;;;;;;;10.45;90.50;97333.87;30001;982;1880;-70
2022/10/05 03:44:41;;;;;;;;;;;;;;;10.45;90.43;97333.87;30001;982;1867;-69
2022/10/05 03:45:32;;;;;;;;;;;;;;;10.47;90.74;97344.44;30001;983;1874;-68
2022/10/05 03:46:24;;;;;;;;;;;;;;;10.47;90.87;97336.31;30001;983;1874;-70
2022/10/05 03:47:06;;;;;;;;;;;;;;;10.48;90.42;97332.50;30001;983;1879;-69
2022/10/05 03:47:51;;;;;;;;;;;;;;;10.49;90.52;97334.94;30001;983;1879;-68
2022/10/05 03:48:49;;;;;;;;;;;;;;;10.50;90.40;97341.97;30001;983;1883;-68
2022/10/05 03:49:39;;;;;;;;;;;;;;;10.50;90.56;97341.97;30001;983;1875;-69
2022/10/05 03:50:24;;;;;;;;;;;;;;;10.49;90.42;97340.34;30001;982;1866;-68
2022/10/05 03:51:18;;;;;;;;;;;;;;;10.50;90.34;97336.56;30001;982;1871;-69
2022/10/05 03:51:53;;;;;;;;;;;;;;;10.48;90.16;97338.72;30001;982;1862;-69